Time;durP1;ratioP1;P1;durP2;ratioP2;P2;SDS_P1;SDS_P2;PMS_P1;PMS_P2;Temp;Humidity;BMP_temperature;BMP_pressure;BME280_temperature;BME280_humidity;BME280_pressure;Samples;Min_cycle;Max_cycle;Signal;HPM_P1;HPM_P2
2021/01/30 00:02:05;;;;;;;;;9.00;8.25;;;;;12.16;43.56;96382.44;4694045;29;102858;-82
2021/01/30 00:04:32;;;;;;;;;11.25;10.25;;;;;12.18;43.69;96377.59;4708842;29;102788;-82
2021/01/30 00:06:59;;;;;;;;;13.25;12.00;;;;;12.16;43.24;96377.00;4711165;29;109911;-82
2021/01/30 00:09:26;;;;;;;;;8.75;8.50;;;;;12.13;43.59;96366.72;4704729;29;103204;-82
2021/01/30 00:11:55;;;;;;;;;10.00;9.75;;;;;12.16;43.30;96376.22;4698831;29;102969;-82
2021/01/30 00:14:32;;;;;;;;;9.00;8.25;;;;;12.15;43.08;96369.19;4707528;29;103150;-82
2021/01/30 00:17:00;;;;;;;;;8.50;7.25;;;;;12.14;43.62;96373.78;4706899;29;109423;-82
2021/01/30 00:19:28;;;;;;;;;8.50;8.00;;;;;12.14;43.40;96372.97;4707897;29;102917;-82
2021/01/30 00:22:01;;;;;;;;;11.75;8.75;;;;;12.13;43.61;96377.56;4704775;29;102933;-82
2021/01/30 00:24:28;;;;;;;;;10.25;9.00;;;;;12.14;43.73;96378.38;4711452;29;105625;-82
2021/01/30 00:26:57;;;;;;;;;9.50;7.00;;;;;12.10;43.31;96386.22;4715802;29;104329;-82
2021/01/30 00:29:25;;;;;;;;;7.75;7.75;;;;;12.11;43.66;96385.16;4721422;29;102899;-82
2021/01/30 00:31:52;;;;;;;;;13.00;10.50;;;;;12.12;43.48;96385.94;4712182;29;102998;-82
2021/01/30 00:34:19;;;;;;;;;8.75;8.00;;;;;12.11;43.83;96395.16;4714926;29;102884;-82
2021/01/30 00:36:49;;;;;;;;;11.25;9.00;;;;;12.11;43.69;96389.75;4705088;29;103919;-82
2021/01/30 00:39:16;;;;;;;;;10.75;8.50;;;;;12.10;43.62;96380.81;4711012;29;103434;-82
2021/01/30 00:41:43;;;;;;;;;11.25;8.00;;;;;12.08;43.74;96382.94;4726010;29;103476;-82
2021/01/30 00:44:13;;;;;;;;;10.25;9.25;;;;;12.09;43.57;96379.16;4701496;29;103061;-82
2021/01/30 00:46:40;;;;;;;;;8.00;7.00;;;;;12.07;43.86;96392.16;4718758;29;104480;-82
2021/01/30 00:49:07;;;;;;;;;9.00;8.00;;;;;12.07;43.81;96384.03;4704870;29;103113;-82
2021/01/30 00:51:34;;;;;;;;;10.25;8.50;;;;;12.06;43.36;96383.25;4712853;29;103581;-82
2021/01/30 00:54:01;;;;;;;;;7.00;5.50;;;;;12.05;43.77;96378.88;4715091;29;103768;-82
2021/01/30 00:56:28;;;;;;;;;11.75;7.50;;;;;12.04;44.07;96374.53;4700925;29;104689;-82
2021/01/30 00:58:55;;;;;;;;;9.00;7.75;;;;;12.04;43.64;96369.13;4715504;29;102793;-82
2021/01/30 01:01:21;;;;;;;;;11.25;8.25;;;;;12.05;43.42;96364.53;4704923;29;103489;-82
2021/01/30 01:03:48;;;;;;;;;11.50;8.00;;;;;12.04;43.98;96371.03;4708605;29;102909;-82
2021/01/30 01:06:15;;;;;;;;;10.75;8.00;;;;;12.03;44.01;96355.84;4637218;29;104170;-82
2021/01/30 01:08:43;;;;;;;;;8.00;8.00;;;;;12.04;43.70;96357.47;4698210;29;103996;-82
2021/01/30 01:11:13;;;;;;;;;8.25;7.00;;;;;12.02;43.79;96348.81;4698961;29;105071;-82
2021/01/30 01:13:42;;;;;;;;;11.50;9.00;;;;;12.01;43.88;96356.13;4705803;29;102961;-82
2021/01/30 01:16:11;;;;;;;;;11.75;8.50;;;;;12.01;43.56;96369.66;4705533;29;103941;-82
2021/01/30 01:18:41;;;;;;;;;3.75;2.00;;;;;12.01;44.13;96358.00;4706762;29;102959;-82
2021/01/30 01:21:11;;;;;;;;;9.25;8.75;;;;;12.01;44.01;96347.19;4703021;29;102973;-82
2021/01/30 01:23:44;;;;;;;;;9.00;7.50;;;;;11.99;43.82;96354.75;4705066;29;103912;-82
2021/01/30 01:26:13;;;;;;;;;11.25;7.75;;;;;11.99;44.14;96352.03;4705532;29;104048;-82
2021/01/30 01:28:43;;;;;;;;;8.75;8.00;;;;;11.98;43.36;96362.06;4697315;29;105048;-82
2021/01/30 01:31:16;;;;;;;;;4.00;2.50;;;;;11.97;43.55;96360.44;4704194;29;102846;-82
2021/01/30 01:33:46;;;;;;;;;12.50;10.00;;;;;11.98;43.86;96358.53;4707193;29;103995;-82
2021/01/30 01:36:15;;;;;;;;;8.00;7.25;;;;;11.97;43.45;96356.91;4696626;29;103931;-82
2021/01/30 01:38:42;;;;;;;;;11.00;6.50;;;;;11.96;44.11;96349.88;4711405;29;102859;-82
2021/01/30 01:41:09;;;;;;;;;13.00;10.50;;;;;11.94;43.94;96341.19;4706995;29;102882;-82
2021/01/30 01:43:35;;;;;;;;;10.75;9.25;;;;;11.95;43.79;96337.41;4716301;29;102652;-82
2021/01/30 01:46:08;;;;;;;;;10.50;8.00;;;;;11.93;43.83;96339.56;4709139;29;108935;-82
2021/01/30 01:48:40;;;;;;;;;11.50;9.75;;;;;11.94;44.35;96341.19;4712942;29;103033;-82
2021/01/30 01:51:07;;;;;;;;;14.25;8.00;;;;;11.94;43.93;96333.06;4725751;29;102965;-82
2021/01/30 01:53:36;;;;;;;;;7.50;6.50;;;;;11.93;43.73;96334.16;4711768;29;103256;-82
2021/01/30 01:56:06;;;;;;;;;12.00;9.25;;;;;11.92;43.88;96337.94;4709885;29;109313;-82
2021/01/30 01:58:34;;;;;;;;;8.75;7.00;;;;;11.89;44.20;96327.63;4710654;29;102868;-82
2021/01/30 02:01:01;;;;;;;;;5.75;4.75;;;;;11.90;43.83;96330.06;4705704;29;105982;-82
2021/01/30 02:03:28;;;;;;;;;8.25;7.75;;;;;11.89;44.22;96324.91;4705812;29;103002;-82
2021/01/30 02:05:54;;;;;;;;;7.00;7.00;;;;;11.89;44.10;96327.63;4668828;29;104681;-82
2021/01/30 02:08:23;;;;;;;;;11.50;9.00;;;;;11.90;43.57;96323.84;4685169;29;102946;-82
2021/01/30 02:10:51;;;;;;;;;7.00;7.00;;;;;11.88;43.66;96320.59;4705091;29;104393;-82
2021/01/30 02:13:25;;;;;;;;;12.50;10.00;;;;;11.88;43.84;96312.47;4705542;29;103707;-82
2021/01/30 02:16:22;;;;;;;;;8.00;7.50;;;;;11.89;44.17;96308.66;4726970;29;105138;-82
2021/01/30 02:19:15;;;;;;;;;12.25;10.50;;;;;11.87;43.95;96308.13;4650232;29;104835;-82
2021/01/30 02:22:18;;;;;;;;;10.25;7.25;;;;;11.86;44.14;96301.91;4655862;29;104499;-82
2021/01/30 02:24:57;;;;;;;;;11.50;8.25;;;;;11.85;43.87;96291.31;4651807;29;103780;-82
2021/01/30 02:27:41;;;;;;;;;11.50;8.00;;;;;11.85;43.68;96289.44;4722537;29;104097;-81
2021/01/30 02:30:17;;;;;;;;;8.50;8.00;;;;;11.85;44.16;96299.44;4697547;29;105273;-81
2021/01/30 02:33:04;;;;;;;;;8.75;7.75;;;;;11.85;44.34;96294.03;4717733;29;102951;-81
2021/01/30 02:36:09;;;;;;;;;9.25;8.00;;;;;11.82;43.98;96303.50;4712523;29;103913;-81
2021/01/30 02:38:39;;;;;;;;;11.00;10.25;;;;;11.82;44.07;96294.56;4570122;29;109829;-82
2021/01/30 02:41:18;;;;;;;;;7.00;7.00;;;;;11.82;43.86;96295.38;4680003;29;104119;-81
2021/01/30 02:43:48;;;;;;;;;11.50;10.75;;;;;11.82;44.47;96299.97;4704034;29;103020;-81
2021/01/30 02:46:24;;;;;;;;;7.25;7.00;;;;;11.81;43.78;96299.16;4726225;29;102956;-82
2021/01/30 02:48:54;;;;;;;;;11.00;8.25;;;;;11.80;44.29;96294.00;4704861;29;104017;-81
2021/01/30 02:51:26;;;;;;;;;7.75;6.75;;;;;11.81;44.05;96284.81;4695043;29;104346;-81
2021/01/30 02:53:55;;;;;;;;;12.50;11.50;;;;;11.80;44.09;96280.47;4704205;29;105506;-81
2021/01/30 02:56:22;;;;;;;;;8.00;7.00;;;;;11.79;44.19;96274.25;4706700;29;103812;-81
2021/01/30 02:58:53;;;;;;;;;7.50;7.00;;;;;11.79;44.44;96270.75;4711534;29;104841;-81
2021/01/30 03:01:19;;;;;;;;;6.75;6.50;;;;;11.78;43.99;96263.69;4705435;29;103953;-81
2021/01/30 03:03:46;;;;;;;;;11.00;7.00;;;;;11.78;44.11;96260.97;4702449;29;103950;-81
2021/01/30 03:06:21;;;;;;;;;7.25;6.75;;;;;11.78;44.01;96269.09;4711526;29;104134;-81
2021/01/30 03:08:57;;;;;;;;;10.50;8.00;;;;;11.77;44.23;96276.41;4701321;29;103937;-81
2021/01/30 03:11:26;;;;;;;;;7.75;7.75;;;;;11.77;44.33;96275.59;4712123;29;102919;-81
2021/01/30 03:13:54;;;;;;;;;13.25;10.50;;;;;11.76;44.49;96266.66;4714825;29;104508;-81
2021/01/30 03:16:23;;;;;;;;;6.25;6.00;;;;;11.75;44.16;96261.53;4720769;29;103028;-81
2021/01/30 03:18:58;;;;;;;;;8.25;8.00;;;;;11.74;44.04;96243.66;4715441;29;103923;-81
2021/01/30 03:21:25;;;;;;;;;7.50;6.75;;;;;11.75;43.98;96256.09;4719068;29;103098;-82
2021/01/30 03:23:51;;;;;;;;;9.25;7.00;;;;;11.74;44.35;96249.06;4707344;29;103948;-81
2021/01/30 03:26:20;;;;;;;;;8.25;6.00;;;;;11.72;43.86;96235.78;4713243;29;104830;-81
2021/01/30 03:28:47;;;;;;;;;6.25;6.00;;;;;11.73;44.14;96239.31;4705492;29;104106;-81
2021/01/30 03:31:14;;;;;;;;;10.75;8.25;;;;;11.72;44.31;96240.34;4710853;29;103046;-81
2021/01/30 03:33:42;;;;;;;;;8.75;8.00;;;;;11.68;43.91;96231.94;4721042;29;102869;-81
2021/01/30 03:36:09;;;;;;;;;9.50;7.50;;;;;11.72;44.14;96248.47;4704189;29;105335;-79
2021/01/30 03:38:36;;;;;;;;;9.75;7.25;;;;;11.71;44.12;96233.31;4710486;29;104161;-81
2021/01/30 03:41:03;;;;;;;;;8.75;8.00;;;;;11.71;43.94;96228.69;4707249;29;103003;-81
2021/01/30 03:43:30;;;;;;;;;11.50;8.00;;;;;11.69;44.32;96230.06;4712538;29;106264;-81
2021/01/30 03:45:57;;;;;;;;;10.25;7.25;;;;;11.71;44.31;96233.31;4723693;29;102895;-81
2021/01/30 03:48:24;;;;;;;;;9.50;7.25;;;;;11.71;44.42;96236.03;4722892;29;111694;-81
2021/01/30 03:50:51;;;;;;;;;12.00;12.00;;;;;11.70;44.40;96220.88;4708918;29;102912;-82
2021/01/30 03:53:17;;;;;;;;;8.00;7.00;;;;;11.69;44.41;96219.22;4711647;29;104024;-81
2021/01/30 03:55:44;;;;;;;;;8.25;8.00;;;;;11.67;44.39;96222.19;4713489;29;102849;-81
2021/01/30 03:58:11;;;;;;;;;8.50;7.00;;;;;11.67;44.40;96232.19;4708594;29;103996;-81
2021/01/30 04:00:37;;;;;;;;;9.75;7.00;;;;;11.68;44.39;96228.41;4710633;29;102850;-81
2021/01/30 04:03:04;;;;;;;;;11.00;9.00;;;;;11.67;44.35;96222.19;4709168;29;104510;-81
2021/01/30 04:05:31;;;;;;;;;7.75;6.00;;;;;11.67;44.19;96210.56;4725258;29;103578;-81
2021/01/30 04:07:59;;;;;;;;;11.50;7.50;;;;;11.66;44.55;96198.94;4707690;29;103974;-81
2021/01/30 04:10:31;;;;;;;;;6.25;6.00;;;;;11.62;44.46;96193.22;4703035;29;102720;-81
2021/01/30 04:12:59;;;;;;;;;9.25;7.00;;;;;11.66;44.50;96179.16;4725902;29;102898;-81
2021/01/30 04:15:28;;;;;;;;;8.00;7.00;;;;;11.70;44.59;96180.25;4712044;29;102760;-81
2021/01/30 04:17:54;;;;;;;;;10.00;8.00;;;;;11.73;44.42;96171.63;4709949;29;104960;-81
2021/01/30 04:20:22;;;;;;;;;6.00;6.00;;;;;11.76;44.20;96177.31;4708738;29;102960;-81
2021/01/30 04:22:48;;;;;;;;;10.00;8.00;;;;;11.78;44.19;96158.91;4711957;29;102945;-81
2021/01/30 04:25:16;;;;;;;;;7.00;6.75;;;;;11.81;44.42;96161.09;4707208;29;102967;-81
2021/01/30 04:27:43;;;;;;;;;8.50;6.25;;;;;11.83;44.05;96158.94;4708863;29;107448;-81
2021/01/30 04:30:12;;;;;;;;;6.50;6.25;;;;;11.87;44.23;96151.06;4712684;29;102961;-81
2021/01/30 04:32:38;;;;;;;;;6.25;6.00;;;;;11.90;44.22;96142.41;4706334;29;104628;-81
2021/01/30 04:35:09;;;;;;;;;8.00;6.50;;;;;11.90;44.00;96147.81;4716496;29;103021;-81
2021/01/30 04:37:35;;;;;;;;;7.25;6.25;;;;;11.93;43.94;96137.25;4699912;29;109365;-81
2021/01/30 04:40:04;;;;;;;;;7.75;7.00;;;;;11.94;44.10;96144.31;4705164;29;104321;-81
2021/01/30 04:42:34;;;;;;;;;8.75;8.00;;;;;11.95;44.10;96131.59;4709910;29;103570;-81
2021/01/30 04:45:34;;;;;;;;;8.25;6.75;;;;;11.96;44.14;96135.91;4714112;29;104189;-81
2021/01/30 04:48:12;;;;;;;;;9.50;7.50;;;;;11.97;44.05;96145.69;4664187;29;109332;-81
2021/01/30 04:50:51;;;;;;;;;8.00;7.00;;;;;11.98;44.03;96136.44;4734168;29;102872;-81
2021/01/30 04:53:50;;;;;;;;;8.50;7.50;;;;;11.98;44.15;96152.69;4627986;29;103098;-81
2021/01/30 04:56:21;;;;;;;;;8.00;7.00;;;;;11.98;43.79;96153.50;4651869;29;104193;-81
2021/01/30 04:59:01;;;;;;;;;6.00;5.75;;;;;11.99;44.20;96154.34;4709286;29;105970;-81
2021/01/30 05:01:48;;;;;;;;;7.25;7.25;;;;;11.99;44.12;96143.50;4728871;29;104652;-81
2021/01/30 05:04:26;;;;;;;;;8.25;8.00;;;;;12.00;43.43;96128.88;4659299;29;102987;-81
2021/01/30 05:07:11;;;;;;;;;10.25;7.75;;;;;11.96;44.36;96133.22;4718801;29;102954;-81
2021/01/30 05:09:54;;;;;;;;;10.25;8.25;;;;;11.98;44.02;96122.91;4711684;29;109450;-81
2021/01/30 05:12:31;;;;;;;;;7.25;5.00;;;;;11.97;43.94;96119.41;4639609;29;103085;-81
2021/01/30 05:15:13;;;;;;;;;8.50;8.00;;;;;12.00;44.15;96137.81;4715117;29;103011;-81
2021/01/30 05:17:58;;;;;;;;;9.00;7.00;;;;;11.98;44.15;96125.63;4735266;29;105976;-81
2021/01/30 05:20:27;;;;;;;;;11.50;8.00;;;;;11.95;44.45;96131.59;4662029;29;109401;-81
2021/01/30 05:22:55;;;;;;;;;11.50;7.75;;;;;11.96;43.99;96133.22;4716282;29;102743;-81
2021/01/30 05:25:23;;;;;;;;;9.00;6.50;;;;;11.94;44.38;96133.47;4712734;29;103212;-81
2021/01/30 05:28:01;;;;;;;;;8.00;7.75;;;;;11.95;44.45;96132.41;4709998;29;105570;-81
2021/01/30 05:30:35;;;;;;;;;11.25;8.25;;;;;11.94;43.97;96122.63;4714933;29;104311;-81
2021/01/30 05:33:21;;;;;;;;;8.50;8.00;;;;;11.96;44.01;96127.78;4725504;29;103064;-81
2021/01/30 05:35:53;;;;;;;;;11.00;8.25;;;;;11.94;43.66;96129.94;4617066;29;104596;-81
2021/01/30 05:38:30;;;;;;;;;10.25;8.25;;;;;11.93;44.30;96118.31;4714317;29;106149;-81
2021/01/30 05:41:05;;;;;;;;;8.00;7.50;;;;;11.93;44.04;96109.41;4733999;29;104859;-81
2021/01/30 05:43:42;;;;;;;;;9.75;8.25;;;;;11.91;44.09;96108.84;4710428;29;103054;-81
2021/01/30 05:46:14;;;;;;;;;8.50;7.50;;;;;11.92;44.15;96118.59;4707575;29;104101;-81
2021/01/30 05:48:44;;;;;;;;;6.75;6.25;;;;;11.89;44.07;96117.22;4689109;29;105986;-81
2021/01/30 05:51:26;;;;;;;;;7.75;7.75;;;;;11.91;44.29;96108.84;4702400;29;104056;-81
2021/01/30 05:53:52;;;;;;;;;6.75;5.00;;;;;11.89;44.54;96114.50;4637136;29;103373;-81
2021/01/30 05:56:19;;;;;;;;;8.75;7.50;;;;;11.89;44.19;96111.81;4703875;29;103019;-81
2021/01/30 05:58:47;;;;;;;;;8.00;6.50;;;;;11.87;44.47;96113.97;4708492;29;102996;-81
2021/01/30 06:01:17;;;;;;;;;8.50;7.75;;;;;11.88;44.22;96106.69;4705530;29;104571;-81
2021/01/30 06:04:02;;;;;;;;;8.00;7.50;;;;;11.85;44.23;96099.06;4702298;29;103175;-81
2021/01/30 06:06:33;;;;;;;;;7.75;7.00;;;;;11.86;44.48;96100.72;4711025;29;103006;-81
2021/01/30 06:09:04;;;;;;;;;9.25;7.00;;;;;11.85;44.14;96104.50;4710578;29;104185;-81
2021/01/30 06:11:49;;;;;;;;;7.75;7.25;;;;;11.84;44.27;96105.59;4726161;29;104012;-81
2021/01/30 06:14:36;;;;;;;;;8.50;6.25;;;;;11.84;44.08;96108.31;4724889;29;104366;-81
2021/01/30 06:17:03;;;;;;;;;9.25;8.25;;;;;11.82;44.49;96100.44;4727700;29;102932;-81
2021/01/30 06:19:32;;;;;;;;;8.25;8.00;;;;;11.82;44.57;96089.63;4708262;28;103107;-81
2021/01/30 06:22:22;;;;;;;;;11.25;8.00;;;;;11.82;44.27;96094.22;4717170;29;104150;-81
2021/01/30 06:24:49;;;;;;;;;7.75;6.75;;;;;11.83;44.56;96095.84;4594156;29;102885;-81
2021/01/30 06:27:38;;;;;;;;;6.75;6.50;;;;;11.82;44.78;96094.22;4713860;29;103684;-81
2021/01/30 06:30:09;;;;;;;;;7.00;6.00;;;;;11.80;44.21;96085.53;4714455;28;104078;-81
2021/01/30 06:32:46;;;;;;;;;7.00;6.00;;;;;11.80;44.18;96080.94;4723314;29;104320;-81
2021/01/30 06:35:19;;;;;;;;;9.25;8.00;;;;;11.78;44.74;96085.81;4706646;29;102990;-81
2021/01/30 06:38:09;;;;;;;;;11.50;8.75;;;;;11.78;44.22;96083.13;4701672;29;104245;-81
2021/01/30 06:40:46;;;;;;;;;10.50;7.25;;;;;11.79;44.07;96083.94;4710377;29;104574;-81
2021/01/30 06:43:34;;;;;;;;;8.00;7.00;;;;;11.78;44.37;96075.00;4709786;29;108719;-81
2021/01/30 06:46:08;;;;;;;;;11.00;7.00;;;;;11.79;44.65;96081.22;4719376;29;103025;-81
2021/01/30 06:48:40;;;;;;;;;8.00;8.00;;;;;11.78;44.41;96061.47;4708627;29;103128;-81
2021/01/30 06:51:40;;;;;;;;;7.50;6.75;;;;;11.75;43.93;96055.78;4703510;29;103144;-82
2021/01/30 06:54:23;;;;;;;;;10.50;9.75;;;;;11.74;44.45;96052.25;4645137;29;109749;-81
2021/01/30 06:56:59;;;;;;;;;11.75;8.00;;;;;11.75;44.37;96056.59;4650672;29;102944;-81
2021/01/30 06:59:27;;;;;;;;;11.00;8.00;;;;;11.75;44.47;96045.75;4711942;29;102842;-81
2021/01/30 07:01:54;;;;;;;;;11.75;8.00;;;;;11.72;44.38;96048.16;4717296;29;102968;-81
2021/01/30 07:05:00;;;;;;;;;7.00;5.25;;;;;11.74;44.23;96046.03;4710006;29;104054;-81
2021/01/30 07:07:36;;;;;;;;;10.75;9.50;;;;;11.74;44.36;96046.03;4625830;29;103105;-81
2021/01/30 07:10:17;;;;;;;;;8.00;6.75;;;;;11.73;44.15;96039.78;4736745;29;103074;-81
2021/01/30 07:12:55;;;;;;;;;7.00;7.00;;;;;11.73;44.27;96047.09;4717196;29;105208;-81
2021/01/30 07:15:32;;;;;;;;;8.75;7.75;;;;;11.71;44.30;96033.78;4702402;29;109696;-81
2021/01/30 07:18:30;;;;;;;;;12.50;9.25;;;;;11.69;44.61;96033.28;4712902;29;102873;-81
2021/01/30 07:21:15;;;;;;;;;9.50;8.75;;;;;11.71;44.31;96033.78;4669832;29;103549;-81
2021/01/30 07:23:45;;;;;;;;;7.00;7.00;;;;;11.72;44.17;96031.91;4712856;29;104603;-81
2021/01/30 07:26:21;;;;;;;;;7.75;7.50;;;;;11.70;44.37;96029.50;4716592;29;109945;-81
2021/01/30 07:29:01;;;;;;;;;9.00;7.00;;;;;11.71;44.21;96038.44;4709840;29;103850;-81
2021/01/30 07:31:32;;;;;;;;;10.00;7.50;;;;;11.68;44.19;96022.69;4699256;29;103055;-81
2021/01/30 07:34:10;;;;;;;;;7.75;7.75;;;;;11.69;44.37;96021.63;4715052;29;102854;-81
2021/01/30 07:36:57;;;;;;;;;8.00;7.00;;;;;11.69;44.40;96018.91;4700605;29;105586;-81
2021/01/30 07:39:39;;;;;;;;;9.50;8.00;;;;;11.69;44.34;96018.91;4638904;29;104356;-82
2021/01/30 07:42:21;;;;;;;;;7.75;7.00;;;;;11.68;44.60;96018.09;4721250;29;103916;-81
2021/01/30 07:44:48;;;;;;;;;8.00;7.25;;;;;11.69;44.57;96018.91;4702012;29;103123;-81
2021/01/30 07:47:18;;;;;;;;;9.50;6.25;;;;;11.67;44.12;96012.94;4735819;29;105830;-81
2021/01/30 07:49:47;;;;;;;;;8.50;7.00;;;;;11.64;44.32;96012.44;4714485;29;102995;-81
2021/01/30 07:52:17;;;;;;;;;8.50;6.50;;;;;11.67;44.51;96019.19;4717511;29;103278;-82
2021/01/30 07:54:47;;;;;;;;;8.75;7.50;;;;;11.68;44.52;96017.28;4719936;29;103128;-82
2021/01/30 07:57:32;;;;;;;;;7.00;7.00;;;;;11.69;44.44;96024.34;4718485;29;104661;-80
2021/01/30 08:00:06;;;;;;;;;7.75;6.50;;;;;11.67;44.19;96021.88;4717755;29;102903;-82
2021/01/30 08:03:12;;;;;;;;;11.00;9.00;;;;;11.67;44.15;96021.88;4733119;29;102931;-82
2021/01/30 08:06:01;;;;;;;;;6.00;6.00;;;;;11.64;44.08;96017.84;4598539;29;102968;-82
2021/01/30 08:08:40;;;;;;;;;9.00;6.00;;;;;11.66;44.41;96014.06;4666764;29;109912;-82
2021/01/30 08:11:18;;;;;;;;;6.00;6.00;;;;;11.64;44.46;96020.53;4720028;29;103741;-82
2021/01/30 08:13:51;;;;;;;;;7.75;6.00;;;;;11.65;44.65;96013.25;4715925;29;103087;-81
2021/01/30 08:16:32;;;;;;;;;7.00;6.75;;;;;11.63;44.65;96002.69;4719414;29;102997;-82
2021/01/30 08:19:12;;;;;;;;;6.50;6.25;;;;;11.64;44.75;96017.03;4742367;29;104752;-82
2021/01/30 08:21:46;;;;;;;;;6.00;5.50;;;;;11.64;44.51;96014.31;4714123;29;103269;-82
2021/01/30 08:24:29;;;;;;;;;7.00;6.00;;;;;11.64;44.51;96017.84;4712519;29;102801;-82
2021/01/30 08:27:22;;;;;;;;;7.00;6.00;;;;;11.64;44.26;96009.72;4666272;29;103024;-82
2021/01/30 08:29:49;;;;;;;;;6.25;5.75;;;;;11.64;44.44;96014.31;4732999;29;110595;-82
2021/01/30 08:32:25;;;;;;;;;7.00;6.00;;;;;11.61;44.71;96002.16;4726166;29;102942;-82
2021/01/30 08:34:56;;;;;;;;;7.25;6.00;;;;;11.63;44.20;96005.38;4723124;29;102947;-82
2021/01/30 08:37:26;;;;;;;;;7.25;6.00;;;;;11.62;44.52;95998.34;4716083;29;103539;-82
2021/01/30 08:40:03;;;;;;;;;7.50;6.50;;;;;11.62;44.26;96009.16;4722292;29;104678;-82
2021/01/30 08:42:32;;;;;;;;;8.00;7.00;;;;;11.62;44.38;96001.03;4715743;29;102874;-82
2021/01/30 08:45:09;;;;;;;;;6.00;6.00;;;;;11.63;44.29;95997.25;4722074;29;102844;-82
2021/01/30 08:47:54;;;;;;;;;7.50;5.50;;;;;11.62;44.28;95995.63;4723340;29;103449;-82
2021/01/30 08:50:30;;;;;;;;;7.75;6.50;;;;;11.62;44.59;96011.88;4667751;29;109399;-82
2021/01/30 08:53:24;;;;;;;;;7.00;5.50;;;;;11.62;44.35;96003.75;4722010;29;103134;-82
2021/01/30 08:55:52;;;;;;;;;7.00;6.25;;;;;11.63;44.28;96015.41;4620543;29;103076;-82
2021/01/30 08:58:36;;;;;;;;;5.25;5.25;;;;;11.62;44.64;96009.16;4717313;29;103205;-82
2021/01/30 09:01:12;;;;;;;;;5.50;4.50;;;;;11.62;44.39;96009.16;4731199;29;104235;-82
2021/01/30 09:03:44;;;;;;;;;8.00;6.00;;;;;11.63;44.25;96027.03;4726521;29;103033;-82
2021/01/30 09:06:39;;;;;;;;;7.75;6.00;;;;;11.62;44.48;96017.28;4722200;29;104874;-82
2021/01/30 09:09:08;;;;;;;;;7.00;5.50;;;;;11.63;44.68;96023.50;4675993;29;103067;-82
2021/01/30 09:11:36;;;;;;;;;4.75;4.25;;;;;11.61;44.54;96034.63;4713188;29;104119;-82
2021/01/30 09:14:16;;;;;;;;;5.50;4.50;;;;;11.61;44.61;96033.81;4724533;29;103058;-82
2021/01/30 09:16:58;;;;;;;;;6.00;5.75;;;;;11.62;43.94;96030.81;4727598;29;102755;-82
2021/01/30 09:19:54;;;;;;;;;6.00;5.00;;;;;11.60;44.60;96035.72;4630590;29;103199;-82
2021/01/30 09:22:30;;;;;;;;;5.00;4.75;;;;;11.60;44.13;96046.53;4657587;29;108816;-82
2021/01/30 09:25:27;;;;;;;;;6.75;5.00;;;;;11.60;44.54;96051.94;4729113;29;103153;-82
2021/01/30 09:27:58;;;;;;;;;6.50;5.00;;;;;11.60;44.56;96057.34;4634875;29;103279;-82
2021/01/30 09:31:02;;;;;;;;;4.50;4.00;;;;;11.60;44.69;96068.19;4717291;29;102782;-82
2021/01/30 09:33:36;;;;;;;;;4.25;4.25;;;;;11.60;44.20;96076.31;4636596;29;109945;-82
2021/01/30 09:36:22;;;;;;;;;6.25;5.50;;;;;11.60;44.31;96079.00;4720702;29;103038;-82
2021/01/30 09:38:50;;;;;;;;;6.50;4.00;;;;;11.59;44.30;96100.91;4712750;29;102720;-82
2021/01/30 09:41:24;;;;;;;;;6.00;5.00;;;;;11.59;44.11;96099.03;4727187;29;102807;-82
2021/01/30 09:44:17;;;;;;;;;7.00;5.00;;;;;11.59;44.84;96109.03;4724388;29;108945;-82
2021/01/30 09:46:45;;;;;;;;;4.75;4.25;;;;;11.58;44.64;96121.75;4725714;29;102829;-82
2021/01/30 09:49:20;;;;;;;;;4.00;3.50;;;;;11.59;44.46;96123.38;4715729;29;102911;-82
2021/01/30 09:51:47;;;;;;;;;6.75;4.25;;;;;11.57;44.61;96119.34;4722641;29;102767;-82
2021/01/30 09:54:15;;;;;;;;;6.00;5.00;;;;;11.58;44.44;96118.22;4723252;29;108993;-82
2021/01/30 09:56:42;;;;;;;;;5.75;3.25;;;;;11.59;44.37;96123.38;4722632;29;102988;-82
2021/01/30 09:59:09;;;;;;;;;5.00;4.00;;;;;11.58;44.54;96126.34;4727186;29;102985;-82
2021/01/30 10:01:39;;;;;;;;;5.25;5.00;;;;;11.59;44.57;96134.22;4725378;29;102816;-82
2021/01/30 10:04:20;;;;;;;;;4.25;4.25;;;;;11.58;44.78;96146.13;4742759;29;104496;-82
2021/01/30 10:06:48;;;;;;;;;4.50;3.50;;;;;11.58;44.58;96156.13;4729384;29;102798;-82
2021/01/30 10:09:24;;;;;;;;;5.25;4.00;;;;;11.58;44.62;96164.25;4720408;29;103037;-82
2021/01/30 10:11:55;;;;;;;;;5.25;4.50;;;;;11.56;44.61;96152.88;4718496;29;102960;-82
2021/01/30 10:14:32;;;;;;;;;4.00;4.00;;;;;11.58;44.51;96164.25;4731089;29;104005;-82
2021/01/30 10:17:29;;;;;;;;;4.00;3.50;;;;;11.57;44.30;96166.13;4744585;29;102953;-82
2021/01/30 10:20:04;;;;;;;;;4.00;4.00;;;;;11.56;44.55;96178.06;4656271;29;102913;-82
2021/01/30 10:22:36;;;;;;;;;6.00;4.50;;;;;11.57;44.53;96182.38;4727124;29;102882;-82
2021/01/30 10:25:09;;;;;;;;;4.00;3.00;;;;;11.56;44.61;96194.31;4725903;29;104216;-82
2021/01/30 10:27:36;;;;;;;;;5.00;4.00;;;;;11.56;44.50;96193.47;4740799;29;102973;-82
2021/01/30 10:30:07;;;;;;;;;4.00;3.75;;;;;11.54;44.47;96204.56;4723739;29;102928;-82
2021/01/30 10:32:53;;;;;;;;;4.00;4.00;;;;;11.55;44.46;96233.25;4722970;29;103065;-82
2021/01/30 10:35:28;;;;;;;;;6.00;4.25;;;;;11.55;44.76;96245.97;4717784;29;110063;-82
2021/01/30 10:37:56;;;;;;;;;7.00;4.00;;;;;11.54;44.54;96250.56;4727505;29;103204;-82
2021/01/30 10:40:33;;;;;;;;;6.00;5.00;;;;;11.55;44.77;96248.69;4723244;29;104411;-82
2021/01/30 10:43:06;;;;;;;;;4.00;3.50;;;;;11.53;44.58;96246.22;4726491;29;103806;-82
2021/01/30 10:45:42;;;;;;;;;6.00;5.00;;;;;11.54;44.40;96257.88;4721069;29;104387;-82
2021/01/30 10:48:11;;;;;;;;;7.00;4.00;;;;;11.52;44.59;96260.88;4721643;29;103653;-82
2021/01/30 10:50:38;;;;;;;;;4.00;4.00;;;;;11.54;44.64;96271.41;4721864;29;102933;-82
2021/01/30 10:53:37;;;;;;;;;5.00;4.00;;;;;11.52;44.44;96279.81;4746774;29;103394;-82
2021/01/30 10:56:15;;;;;;;;;4.50;4.00;;;;;11.50;44.42;96281.94;4662754;29;109923;-82
2021/01/30 10:58:44;;;;;;;;;7.00;5.00;;;;;11.51;44.44;96297.13;4721364;29;102784;-82
2021/01/30 11:01:19;;;;;;;;;6.00;5.00;;;;;11.50;44.05;96319.84;4728016;29;102748;-82
2021/01/30 11:03:54;;;;;;;;;3.50;3.25;;;;;11.50;44.61;96330.66;4724992;29;102956;-82
2021/01/30 11:06:35;;;;;;;;;4.25;4.00;;;;;11.50;44.48;96344.19;4718128;29;108973;-82
2021/01/30 11:09:30;;;;;;;;;6.50;5.25;;;;;11.50;44.52;96351.50;4724313;29;103091;-82
2021/01/30 11:12:10;;;;;;;;;5.00;4.00;;;;;11.49;44.57;96369.63;4672168;29;102927;-82
2021/01/30 11:14:37;;;;;;;;;4.75;4.75;;;;;11.48;44.49;96381.50;4723875;29;103098;-82
2021/01/30 11:17:04;;;;;;;;;5.00;4.25;;;;;11.48;44.45;96383.44;4747068;29;104065;-82
2021/01/30 11:19:31;;;;;;;;;4.75;4.25;;;;;11.47;44.43;96396.13;4721336;29;102958;-82
2021/01/30 11:22:06;;;;;;;;;7.00;5.00;;;;;11.47;44.69;96408.84;4725671;29;102958;-82
2021/01/30 11:24:34;;;;;;;;;6.50;4.25;;;;;11.47;44.75;96419.69;4725805;29;103033;-82
2021/01/30 11:27:01;;;;;;;;;4.00;4.00;;;;;11.47;44.60;96417.78;4719355;29;104559;-82
2021/01/30 11:29:42;;;;;;;;;11.00;7.50;;;;;11.46;44.32;96426.97;4717240;29;102888;-82
2021/01/30 11:32:17;;;;;;;;;5.00;4.50;;;;;11.46;44.39;96437.81;4724138;29;102773;-82
2021/01/30 11:34:44;;;;;;;;;5.75;5.00;;;;;11.45;44.49;96436.16;4724543;29;104911;-82
2021/01/30 11:37:11;;;;;;;;;5.00;4.00;;;;;11.44;44.64;96439.94;4718962;29;103984;-82
2021/01/30 11:39:38;;;;;;;;;5.25;4.50;;;;;11.45;44.44;96457.81;4739946;29;102780;-82
2021/01/30 11:42:05;;;;;;;;;7.00;5.75;;;;;11.45;44.45;96465.94;4717868;29;102855;-82
2021/01/30 11:44:32;;;;;;;;;5.25;5.00;;;;;11.44;44.24;96472.41;4723837;29;102977;-82
2021/01/30 11:46:59;;;;;;;;;5.75;4.75;;;;;11.44;44.56;96504.06;4741482;29;104101;-82
2021/01/30 11:49:26;;;;;;;;;4.75;4.75;;;;;11.44;44.62;96514.88;4733199;29;102756;-82
2021/01/30 11:51:54;;;;;;;;;3.75;3.75;;;;;11.43;44.63;96516.81;4725103;29;104636;-82
2021/01/30 11:54:20;;;;;;;;;6.00;6.00;;;;;11.45;44.49;96524.66;4723348;29;102932;-82